Time;durP1;ratioP1;P1;durP2;ratioP2;P2;SDS_P1;SDS_P2;PMS_P1;PMS_P2;Temp;Humidity;BMP_temperature;BMP_pressure;BME280_temperature;BME280_humidity;BME280_pressure;Samples;Min_cycle;Max_cycle;Signal;HPM_P1;HPM_P2
2020/12/19 00:02:20;;;;;;;23.20;3.83;;;12.60;99.90;;;;;;5059767;28;20087;-86
2020/12/19 00:04:51;;;;;;;25.67;3.95;;;12.60;99.90;;;;;;5055790;28;20080;-86
2020/12/19 00:07:22;;;;;;;23.27;3.97;;;12.60;99.90;;;;;;5057759;28;20052;-85
2020/12/19 00:09:53;;;;;;;29.20;4.28;;;12.70;99.90;;;;;;5056433;28;20056;-85
2020/12/19 00:12:23;;;;;;;29.98;3.75;;;12.70;99.90;;;;;;5054741;28;20053;-86
2020/12/19 00:14:52;;;;;;;25.17;3.33;;;12.70;99.90;;;;;;5067032;28;20044;-85
2020/12/19 00:17:21;;;;;;;19.10;3.10;;;12.70;99.90;;;;;;5063837;28;20053;-86
2020/12/19 00:19:52;;;;;;;24.17;3.72;;;12.70;99.90;;;;;;5058445;28;20064;-86
2020/12/19 00:22:22;;;;;;;28.25;3.78;;;12.70;99.90;;;;;;5070214;28;20053;-86
2020/12/19 00:24:52;;;;;;;26.38;3.80;;;12.80;99.90;;;;;;5072689;28;20053;-85
2020/12/19 00:27:24;;;;;;;28.05;3.47;;;12.80;99.90;;;;;;5085028;28;20053;-85
2020/12/19 00:29:55;;;;;;;33.22;4.65;;;12.80;99.90;;;;;;5059756;28;20055;-86
2020/12/19 00:32:25;;;;;;;30.95;4.35;;;12.80;99.90;;;;;;5067232;28;20452;-86
2020/12/19 00:34:55;;;;;;;29.17;3.63;;;12.80;99.90;;;;;;5069666;28;21381;-85
2020/12/19 00:37:26;;;;;;;28.65;4.22;;;12.80;99.90;;;;;;5057299;28;20429;-86
2020/12/19 00:39:58;;;;;;;28.30;3.80;;;12.80;99.90;;;;;;5071352;28;20048;-88
2020/12/19 00:42:29;;;;;;;39.75;4.70;;;12.80;99.90;;;;;;5073695;28;20447;-87
2020/12/19 00:45:00;;;;;;;23.25;3.38;;;12.80;99.90;;;;;;5070540;28;20052;-88
2020/12/19 00:47:30;;;;;;;31.33;3.83;;;12.80;99.90;;;;;;5060515;28;20372;-87
2020/12/19 00:50:01;;;;;;;35.45;4.28;;;12.80;99.90;;;;;;5058829;28;20052;-87
2020/12/19 00:52:30;;;;;;;36.05;4.60;;;12.70;99.90;;;;;;5070825;28;20052;-86
2020/12/19 00:55:01;;;;;;;34.58;4.25;;;12.80;99.90;;;;;;5070092;28;20086;-86
2020/12/19 00:57:33;;;;;;;34.15;3.95;;;12.80;99.90;;;;;;5071872;28;20052;-87
2020/12/19 01:00:05;;;;;;;32.13;3.83;;;12.80;99.90;;;;;;5057304;28;20135;-86
2020/12/19 01:02:37;;;;;;;39.83;5.03;;;12.80;99.90;;;;;;5064365;28;20053;-87
2020/12/19 01:05:14;;;;;;;34.47;4.97;;;12.80;99.90;;;;;;5060430;28;20048;-86
2020/12/19 01:07:44;;;;;;;30.42;5.03;;;12.80;99.90;;;;;;5070725;28;20057;-86
2020/12/19 01:10:13;;;;;;;32.03;5.80;;;12.80;99.90;;;;;;5055795;28;20055;-85
2020/12/19 01:12:44;;;;;;;42.30;5.70;;;12.70;99.90;;;;;;5054598;28;20052;-86
2020/12/19 01:15:15;;;;;;;44.72;6.03;;;12.70;99.90;;;;;;5072571;28;20055;-86
2020/12/19 01:17:44;;;;;;;41.47;6.00;;;12.70;99.90;;;;;;5058633;28;20049;-86
2020/12/19 01:20:15;;;;;;;44.95;5.97;;;12.70;99.90;;;;;;5064900;28;20180;-86
2020/12/19 01:22:45;;;;;;;38.35;5.68;;;12.70;99.90;;;;;;5065031;28;20044;-86
2020/12/19 01:25:14;;;;;;;50.15;6.60;;;12.60;99.90;;;;;;5071202;28;20056;-86
2020/12/19 01:27:44;;;;;;;49.63;5.90;;;12.60;99.90;;;;;;5054830;28;20505;-86
2020/12/19 01:30:14;;;;;;;46.45;7.25;;;12.60;99.90;;;;;;5067635;28;20056;-86
2020/12/19 01:32:43;;;;;;;44.97;6.32;;;12.60;99.90;;;;;;5067700;28;20350;-86
2020/12/19 01:35:31;;;;;;;51.00;6.78;;;12.50;99.90;;;;;;5059255;28;20365;-86
2020/12/19 01:38:01;;;;;;;42.08;6.22;;;12.50;99.90;;;;;;5055491;28;20091;-87
2020/12/19 01:40:32;;;;;;;47.80;6.13;;;12.50;99.90;;;;;;5056909;28;20109;-85
2020/12/19 01:43:06;;;;;;;41.28;5.53;;;12.50;99.90;;;;;;5070623;28;20052;-86
2020/12/19 01:45:37;;;;;;;35.72;4.97;;;12.50;99.90;;;;;;5069623;28;20056;-87
2020/12/19 01:48:18;;;;;;;43.47;5.97;;;12.50;99.90;;;;;;5054964;28;20053;-86
2020/12/19 01:50:49;;;;;;;46.15;6.03;;;12.40;99.90;;;;;;5064410;28;20068;-86
2020/12/19 01:53:20;;;;;;;45.70;4.85;;;12.40;99.90;;;;;;5063108;28;20486;-87
2020/12/19 01:55:53;;;;;;;36.97;4.55;;;12.40;99.90;;;;;;5058520;28;20395;-86
2020/12/19 01:58:24;;;;;;;39.63;5.05;;;12.50;99.90;;;;;;5069639;28;20197;-86
2020/12/19 02:00:59;;;;;;;39.92;4.63;;;12.40;99.90;;;;;;5058584;28;20053;-86
2020/12/19 02:03:35;;;;;;;38.55;5.13;;;12.40;99.90;;;;;;5069091;28;20102;-86
2020/12/19 02:06:07;;;;;;;43.45;4.95;;;12.40;99.90;;;;;;5067181;28;20114;-86
2020/12/19 02:08:37;;;;;;;29.90;4.40;;;12.40;99.90;;;;;;5070570;28;20048;-87
2020/12/19 02:11:07;;;;;;;37.45;4.25;;;12.30;99.90;;;;;;5062398;28;20064;-86
2020/12/19 02:13:37;;;;;;;27.30;3.80;;;12.30;99.90;;;;;;5055132;28;20041;-86
2020/12/19 02:16:07;;;;;;;31.52;4.55;;;12.30;99.90;;;;;;5056240;28;20058;-86
2020/12/19 02:18:37;;;;;;;36.58;5.25;;;12.30;99.90;;;;;;5063649;28;20486;-86
2020/12/19 02:21:07;;;;;;;38.85;5.15;;;12.30;99.90;;;;;;5069005;28;20113;-86
2020/12/19 02:23:41;;;;;;;36.30;5.43;;;12.30;99.90;;;;;;5057433;28;20088;-86
2020/12/19 02:26:12;;;;;;;32.38;5.03;;;12.30;99.90;;;;;;5056842;28;20467;-86
2020/12/19 02:28:40;;;;;;;45.10;5.55;;;12.30;99.90;;;;;;5056152;28;20053;-85
2020/12/19 02:31:10;;;;;;;43.97;5.38;;;12.30;99.90;;;;;;5070869;28;20437;-86
2020/12/19 02:33:38;;;;;;;44.30;5.90;;;12.30;99.90;;;;;;5071189;28;20044;-86
2020/12/19 02:36:08;;;;;;;35.90;6.10;;;12.30;99.90;;;;;;5055814;28;20079;-85
2020/12/19 02:38:39;;;;;;;49.03;6.78;;;12.30;99.90;;;;;;5055209;28;20041;-86
2020/12/19 02:41:08;;;;;;;53.13;6.32;;;12.30;99.90;;;;;;5059932;28;20056;-86
2020/12/19 02:43:39;;;;;;;39.60;5.05;;;12.30;99.90;;;;;;5057767;28;20075;-87
2020/12/19 02:46:09;;;;;;;41.92;5.30;;;12.30;99.90;;;;;;5054411;28;20064;-86
2020/12/19 02:48:40;;;;;;;28.63;5.32;;;12.30;99.90;;;;;;5071302;28;20379;-86
2020/12/19 02:51:10;;;;;;;34.50;4.40;;;12.30;99.90;;;;;;5058948;28;20395;-87
2020/12/19 02:53:40;;;;;;;28.52;3.35;;;12.30;99.90;;;;;;5070372;28;20139;-87
2020/12/19 02:56:09;;;;;;;;;;;12.20;99.90;;;;;;5071142;28;20769;-87
2020/12/19 02:58:40;;;;;;;33.35;4.93;;;12.20;99.90;;;;;;5070567;28;20677;-87
2020/12/19 03:01:10;;;;;;;30.48;3.72;;;12.20;99.90;;;;;;5069798;28;20052;-86
2020/12/19 03:03:41;;;;;;;34.10;5.15;;;12.30;99.90;;;;;;5072459;28;20087;-86
2020/12/19 03:06:26;;;;;;;43.60;5.18;;;12.30;99.90;;;;;;5056924;28;20057;-86
2020/12/19 03:08:58;;;;;;;35.53;5.53;;;12.30;99.90;;;;;;5073081;28;20099;-87
2020/12/19 03:11:27;;;;;;;44.58;5.07;;;12.30;99.90;;;;;;5062539;28;20053;-87
2020/12/19 03:13:58;;;;;;;39.63;4.82;;;12.30;99.90;;;;;;5059777;28;20064;-87
2020/12/19 03:16:29;;;;;;;41.50;5.70;;;12.20;99.90;;;;;;5072851;28;20059;-87
2020/12/19 03:18:59;;;;;;;39.33;5.30;;;12.20;99.90;;;;;;5054537;28;20059;-87
2020/12/19 03:21:29;;;;;;;33.60;5.28;;;12.20;99.90;;;;;;5075467;28;20466;-87
2020/12/19 03:23:59;;;;;;;43.80;5.40;;;12.10;99.90;;;;;;5058874;28;20056;-87
2020/12/19 03:26:30;;;;;;;38.92;4.47;;;12.00;99.90;;;;;;5057000;28;20045;-87
2020/12/19 03:28:59;;;;;;;45.70;5.68;;;12.00;99.90;;;;;;5060830;28;20171;-87
2020/12/19 03:31:29;;;;;;;38.40;4.75;;;12.00;99.90;;;;;;5073146;28;20505;-87
2020/12/19 03:33:58;;;;;;;40.03;5.10;;;12.00;99.90;;;;;;5073127;28;21158;-87
2020/12/19 03:36:41;;;;;;;34.08;4.40;;;11.90;99.90;;;;;;5056467;28;20376;-86
2020/12/19 03:39:11;;;;;;;33.63;5.03;;;11.90;99.90;;;;;;5057771;28;20067;-87
2020/12/19 03:41:41;;;;;;;32.90;5.13;;;11.90;99.90;;;;;;5057048;28;20806;-87
2020/12/19 03:44:12;;;;;;;41.30;4.70;;;11.90;99.90;;;;;;5065713;28;20048;-86
2020/12/19 03:46:42;;;;;;;42.55;5.38;;;11.80;99.90;;;;;;5067904;28;20056;-86
2020/12/19 03:49:11;;;;;;;46.55;5.25;;;11.80;99.90;;;;;;5057873;28;20045;-86
2020/12/19 03:51:45;;;;;;;50.42;6.38;;;11.80;99.90;;;;;;5057593;28;20517;-87
2020/12/19 03:54:16;;;;;;;44.05;5.63;;;11.80;99.90;;;;;;5058824;28;20052;-87
2020/12/19 03:56:46;;;;;;;36.22;4.80;;;11.80;99.90;;;;;;5067069;28;20056;-87
2020/12/19 03:59:14;;;;;;;37.05;5.03;;;11.80;99.90;;;;;;5063835;28;20051;-87
2020/12/19 04:01:44;;;;;;;40.13;6.18;;;11.80;99.90;;;;;;5058018;28;20052;-86
2020/12/19 04:04:13;;;;;;;40.28;5.63;;;11.80;99.90;;;;;;5059815;28;20107;-86
2020/12/19 04:06:58;;;;;;;47.63;5.45;;;11.80;99.90;;;;;;5071918;28;20492;-87
2020/12/19 04:09:29;;;;;;;38.03;5.47;;;11.80;99.90;;;;;;5071441;28;20079;-86
2020/12/19 04:11:59;;;;;;;37.38;5.85;;;11.80;99.90;;;;;;5070011;28;20063;-87
2020/12/19 04:14:38;;;;;;;39.00;6.03;;;11.90;99.90;;;;;;5068469;28;20048;-86
2020/12/19 04:17:12;;;;;;;39.22;5.45;;;11.90;99.90;;;;;;5065945;28;20052;-87
2020/12/19 04:19:42;;;;;;;44.25;6.15;;;11.90;99.90;;;;;;5057694;28;20041;-87
2020/12/19 04:22:11;;;;;;;37.22;5.40;;;11.80;99.90;;;;;;5055545;28;20049;-86
2020/12/19 04:24:40;;;;;;;42.97;5.03;;;11.80;99.90;;;;;;5056001;28;20117;-86
2020/12/19 04:27:11;;;;;;;48.38;6.00;;;11.90;99.90;;;;;;5067277;28;20376;-85
2020/12/19 04:29:40;;;;;;;46.85;5.95;;;11.90;99.90;;;;;;5068483;28;20452;-87
2020/12/19 04:32:08;;;;;;;;;;;11.90;99.90;;;;;;5072649;28;20056;-86
2020/12/19 04:34:38;;;;;;;38.47;6.18;;;11.90;99.90;;;;;;5070086;28;19921;-86
2020/12/19 04:37:18;;;;;;;23.25;4.43;;;11.90;99.90;;;;;;5057274;28;20055;-86
2020/12/19 04:39:49;;;;;;;10.30;2.65;;;11.80;99.90;;;;;;5087336;28;20049;-86
2020/12/19 04:42:19;;;;;;;10.48;2.00;;;11.70;99.90;;;;;;5074693;28;20049;-86
2020/12/19 04:44:50;;;;;;;10.15;1.80;;;11.70;99.90;;;;;;5069234;28;20044;-86
2020/12/19 04:47:23;;;;;;;11.65;1.90;;;11.60;99.90;;;;;;5067108;28;20522;-88
2020/12/19 04:49:55;;;;;;;9.75;1.67;;;11.60;99.90;;;;;;5066980;28;20044;-87
2020/12/19 04:52:25;;;;;;;17.88;3.17;;;11.50;99.90;;;;;;5058684;28;20537;-87
2020/12/19 04:54:56;;;;;;;16.27;2.42;;;11.40;99.90;;;;;;5070427;28;20056;-88
2020/12/19 04:57:25;;;;;;;12.40;2.10;;;11.40;99.90;;;;;;5073591;28;20057;-87
2020/12/19 04:59:53;;;;;;;13.95;2.42;;;11.30;99.90;;;;;;5067052;28;20123;-87
2020/12/19 05:02:22;;;;;;;15.70;2.28;;;11.30;99.90;;;;;;5065767;28;20397;-87
2020/12/19 05:04:52;;;;;;;20.52;3.20;;;11.20;99.90;;;;;;5067745;28;20375;-87
2020/12/19 05:07:38;;;;;;;20.73;3.35;;;11.20;99.90;;;;;;5057838;28;20071;-87
2020/12/19 05:10:10;;;;;;;21.33;3.22;;;11.10;99.90;;;;;;5057624;28;20041;-87
2020/12/19 05:12:42;;;;;;;21.30;3.08;;;11.10;99.90;;;;;;5056275;28;20049;-87
2020/12/19 05:15:15;;;;;;;15.52;2.50;;;11.10;99.90;;;;;;5055630;28;20119;-87
2020/12/19 05:17:54;;;;;;;27.88;3.47;;;11.10;99.90;;;;;;5059062;28;20058;-86
2020/12/19 05:20:24;;;;;;;21.77;3.40;;;11.00;99.90;;;;;;5061624;28;20470;-87
2020/12/19 05:22:55;;;;;;;25.98;3.58;;;11.00;99.90;;;;;;5064263;28;20071;-87
2020/12/19 05:25:29;;;;;;;28.30;4.22;;;11.00;99.90;;;;;;5057870;28;20064;-87
2020/12/19 05:27:59;;;;;;;34.38;4.28;;;11.00;99.90;;;;;;5055385;28;20045;-87
2020/12/19 05:30:29;;;;;;;25.05;4.07;;;11.00;99.90;;;;;;5068088;28;20056;-87
2020/12/19 05:33:00;;;;;;;31.10;4.28;;;11.00;99.90;;;;;;5068412;28;20410;-87
2020/12/19 05:35:29;;;;;;;21.85;3.58;;;11.10;99.90;;;;;;5067302;28;20368;-86
2020/12/19 05:38:01;;;;;;;20.20;3.03;;;11.10;99.90;;;;;;5066055;28;20068;-87
2020/12/19 05:40:32;;;;;;;30.50;3.78;;;11.10;99.90;;;;;;5057489;28;20056;-87
2020/12/19 05:43:00;;;;;;;25.45;4.57;;;11.00;99.90;;;;;;5069203;28;20064;-87
2020/12/19 05:45:30;;;;;;;23.17;3.33;;;11.00;99.90;;;;;;5072202;28;20056;-87
2020/12/19 05:48:00;;;;;;;17.55;3.30;;;11.00;99.90;;;;;;5070225;28;20435;-87
2020/12/19 05:50:31;;;;;;;24.10;3.85;;;11.00;99.90;;;;;;5066346;28;20044;-87
2020/12/19 05:53:03;;;;;;;19.55;3.20;;;11.00;99.90;;;;;;5066190;28;20076;-87
2020/12/19 05:55:33;;;;;;;29.27;3.53;;;11.00;99.90;;;;;;5057855;28;20045;-87
2020/12/19 05:58:05;;;;;;;19.65;3.10;;;10.90;99.90;;;;;;5071016;28;20556;-87
2020/12/19 06:00:34;;;;;;;24.83;3.67;;;10.90;99.90;;;;;;5073613;28;20048;-87
2020/12/19 06:03:05;;;;;;;30.90;4.45;;;10.90;99.90;;;;;;5070261;28;20053;-88
2020/12/19 06:05:35;;;;;;;28.30;3.65;;;10.80;99.90;;;;;;5067244;28;20055;-87
2020/12/19 06:08:21;;;;;;;28.85;4.13;;;10.80;99.90;;;;;;5068235;28;20099;-87
2020/12/19 06:10:53;;;;;;;29.40;4.82;;;10.80;99.90;;;;;;5068776;28;20044;-87
2020/12/19 06:13:25;;;;;;;25.77;3.65;;;10.80;99.90;;;;;;5056571;28;20045;-87
2020/12/19 06:16:00;;;;;;;34.35;5.10;;;10.70;99.90;;;;;;5069906;28;20474;-87
2020/12/19 06:18:53;;;;;;;31.40;3.67;;;10.70;99.90;;;;;;5075880;28;20041;-87
2020/12/19 06:21:26;;;;;;;29.10;4.30;;;10.70;99.90;;;;;;5068916;28;20040;-87
2020/12/19 06:23:56;;;;;;;39.28;4.35;;;10.70;99.90;;;;;;5057705;28;20127;-86
2020/12/19 06:26:44;;;;;;;32.25;4.22;;;10.60;99.90;;;;;;5065056;28;20045;-87
2020/12/19 06:29:35;;;;;;;31.08;4.10;;;10.60;99.90;;;;;;5070959;28;20482;-87
2020/12/19 06:32:04;;;;;;;30.15;4.70;;;10.60;99.90;;;;;;5062985;28;20044;-87
2020/12/19 06:34:36;;;;;;;32.80;4.35;;;10.60;99.90;;;;;;5071625;28;20069;-87
2020/12/19 06:37:10;;;;;;;33.78;4.47;;;10.60;99.90;;;;;;5075230;28;20059;-87
2020/12/19 06:39:41;;;;;;;33.10;5.18;;;10.60;99.90;;;;;;5073303;28;20060;-87
2020/12/19 06:42:27;;;;;;;30.40;5.22;;;10.60;99.90;;;;;;5062892;28;20139;-89
2020/12/19 06:45:15;;;;;;;30.90;4.90;;;10.60;99.90;;;;;;5072291;28;20054;-88
2020/12/19 06:47:45;;;;;;;36.25;5.03;;;10.60;99.90;;;;;;5063232;28;20052;-87
2020/12/19 06:50:16;;;;;;;32.75;5.25;;;10.70;99.90;;;;;;5058684;28;20079;-88
2020/12/19 06:52:59;;;;;;;32.03;5.20;;;10.60;99.90;;;;;;5060906;28;20065;-87
2020/12/19 06:55:31;;;;;;;35.60;4.68;;;10.70;99.90;;;;;;5061075;28;20087;-88
2020/12/19 06:58:03;;;;;;;34.90;5.57;;;10.70;99.90;;;;;;5068632;28;20045;-88
2020/12/19 07:00:35;;;;;;;34.60;4.70;;;10.70;99.90;;;;;;5070352;28;20076;-89
2020/12/19 07:03:06;;;;;;;37.08;6.07;;;10.80;99.90;;;;;;5064903;28;20052;-91
2020/12/19 07:05:39;;;;;;;39.13;5.38;;;10.80;99.90;;;;;;5082961;28;20220;-86
2020/12/19 07:08:22;;;;;;;30.77;5.25;;;10.80;99.90;;;;;;5070964;28;20048;-87
2020/12/19 07:10:52;;;;;;;45.80;6.47;;;10.90;99.90;;;;;;5064867;28;20071;-86
2020/12/19 07:13:22;;;;;;;37.65;5.40;;;10.90;99.90;;;;;;5065287;28;20049;-86
2020/12/19 07:15:54;;;;;;;38.72;5.70;;;10.90;99.90;;;;;;5066628;28;20147;-86
2020/12/19 07:18:33;;;;;;;33.35;4.72;;;10.90;99.90;;;;;;5082672;28;20057;-87
2020/12/19 07:21:08;;;;;;;32.72;5.28;;;11.00;99.90;;;;;;5069170;28;20059;-86
2020/12/19 07:23:41;;;;;;;36.85;5.43;;;11.00;99.90;;;;;;5069166;28;20127;-86
2020/12/19 07:26:14;;;;;;;32.15;5.20;;;11.00;99.90;;;;;;5070054;28;20401;-86
2020/12/19 07:28:47;;;;;;;28.88;4.13;;;11.00;99.90;;;;;;5065289;28;20049;-85
2020/12/19 07:31:18;;;;;;;27.58;4.38;;;11.00;99.90;;;;;;5070368;28;21406;-86
2020/12/19 07:33:47;;;;;;;30.88;5.15;;;11.00;99.90;;;;;;5067677;28;20509;-87
2020/12/19 07:36:18;;;;;;;38.65;5.55;;;11.00;99.90;;;;;;5062860;28;20457;-87
2020/12/19 07:39:01;;;;;;;33.08;5.57;;;11.00;99.90;;;;;;5062721;28;20057;-87
2020/12/19 07:41:29;;;;;;;38.03;5.38;;;11.00;99.90;;;;;;5062645;28;20052;-87
2020/12/19 07:44:17;;;;;;;32.03;5.88;;;11.10;99.90;;;;;;5069215;28;20434;-87
2020/12/19 07:47:08;;;;;;;33.50;5.22;;;11.10;99.90;;;;;;5071298;28;20128;-87
2020/12/19 07:49:47;;;;;;;44.15;5.35;;;11.10;99.90;;;;;;5065133;28;20474;-86
2020/12/19 07:52:23;;;;;;;28.40;5.85;;;11.10;99.90;;;;;;5067203;28;20057;-87
2020/12/19 07:54:58;;;;;;;39.95;5.28;;;11.10;99.90;;;;;;5062315;28;20059;-87
2020/12/19 07:57:33;;;;;;;35.67;5.05;;;11.10;99.90;;;;;;5068444;28;20112;-87
2020/12/19 08:00:03;;;;;;;38.45;5.60;;;11.10;99.90;;;;;;5065795;28;20088;-87
2020/12/19 08:02:38;;;;;;;35.35;5.15;;;11.10;99.90;;;;;;5066637;28;20390;-87
2020/12/19 08:05:09;;;;;;;39.47;5.53;;;11.10;99.90;;;;;;5068827;28;20055;-87
2020/12/19 08:07:39;;;;;;;35.45;5.68;;;11.10;99.90;;;;;;5064418;28;20656;-87
2020/12/19 08:10:09;;;;;;;35.92;5.95;;;11.10;99.90;;;;;;5064442;28;20106;-87
2020/12/19 08:12:43;;;;;;;43.30;6.85;;;11.10;99.90;;;;;;5066398;28;20044;-87
2020/12/19 08:15:19;;;;;;;29.63;4.97;;;11.10;99.90;;;;;;5069812;28;20048;-87
2020/12/19 08:18:01;;;;;;;33.65;5.93;;;11.10;99.90;;;;;;5063129;28;20056;-87
2020/12/19 08:20:31;;;;;;;44.05;6.80;;;11.10;99.90;;;;;;5069225;28;20055;-87
2020/12/19 08:23:03;;;;;;;40.60;6.38;;;11.10;99.90;;;;;;5068863;28;20052;-87
2020/12/19 08:25:31;;;;;;;47.60;6.85;;;11.20;99.90;;;;;;5082854;28;20091;-87
2020/12/19 08:27:58;;;;;;;42.15;6.60;;;11.20;99.90;;;;;;5061440;28;20136;-86
2020/12/19 08:30:30;;;;;;;49.53;6.88;;;11.20;99.90;;;;;;5070281;28;20100;-85
2020/12/19 08:33:10;;;;;;;41.20;6.32;;;11.30;99.90;;;;;;5067409;28;20443;-89
2020/12/19 08:35:47;;;;;;;39.00;6.22;;;11.30;99.90;;;;;;5070590;28;20087;-86
2020/12/19 08:38:24;;;;;;;45.72;6.25;;;11.40;99.90;;;;;;5067694;28;20048;-86
2020/12/19 08:40:59;;;;;;;46.38;6.63;;;11.40;99.90;;;;;;5066151;28;20056;-86
2020/12/19 08:43:34;;;;;;;36.28;5.80;;;11.40;99.90;;;;;;5066464;28;20443;-86
2020/12/19 08:46:14;;;;;;;40.15;6.22;;;11.50;99.90;;;;;;5066015;28;20123;-86
2020/12/19 08:48:47;;;;;;;46.05;6.40;;;11.50;99.90;;;;;;5065855;28;20103;-86
2020/12/19 08:51:18;;;;;;;48.40;6.60;;;11.50;99.90;;;;;;5064992;28;20064;-86
2020/12/19 08:53:47;;;;;;;41.72;6.03;;;11.50;99.90;;;;;;5066862;28;20049;-86
2020/12/19 08:56:17;;;;;;;;;;;11.60;99.90;;;;;;5062066;28;20127;-87
2020/12/19 08:58:56;;;;;;;44.10;7.07;;;11.60;99.90;;;;;;5080396;28;19928;-87
2020/12/19 09:01:31;;;;;;;36.17;5.93;;;11.60;99.90;;;;;;5066153;28;20460;-86
2020/12/19 09:04:09;;;;;;;35.65;5.47;;;11.60;99.90;;;;;;5065407;28;20098;-86
2020/12/19 09:06:50;;;;;;;43.03;6.05;;;11.60;99.90;;;;;;5066627;28;20076;-86
2020/12/19 09:09:29;;;;;;;40.20;6.47;;;11.60;99.90;;;;;;5069626;28;20051;-86
2020/12/19 09:12:08;;;;;;;45.55;6.72;;;11.70;99.90;;;;;;5064408;28;20052;-86
2020/12/19 09:14:37;;;;;;;;;;;11.70;99.90;;;;;;5065700;28;20052;-86
2020/12/19 09:17:06;;;;;;;34.13;5.93;;;11.70;99.90;;;;;;5064995;28;20006;-86
2020/12/19 09:19:37;;;;;;;40.00;6.50;;;11.80;99.90;;;;;;5059741;28;20053;-86
2020/12/19 09:22:06;;;;;;;44.53;7.10;;;11.80;99.90;;;;;;5062793;28;20477;-86
2020/12/19 09:24:37;;;;;;;36.17;5.45;;;11.90;99.90;;;;;;5066422;28;20052;-86
2020/12/19 09:27:06;;;;;;;41.83;7.63;;;11.90;99.90;;;;;;5065296;28;20138;-86
2020/12/19 09:29:37;;;;;;;38.03;7.13;;;11.90;99.90;;;;;;5066644;28;20049;-86
2020/12/19 09:32:06;;;;;;;43.00;6.65;;;11.90;99.90;;;;;;5060545;28;20086;-86
2020/12/19 09:34:35;;;;;;;39.38;6.65;;;12.00;99.90;;;;;;5063993;28;20048;-86
2020/12/19 09:37:05;;;;;;;41.55;5.85;;;12.10;99.90;;;;;;5066249;28;20082;-86
2020/12/19 09:39:37;;;;;;;40.42;5.72;;;12.10;99.90;;;;;;5060971;28;20041;-88
2020/12/19 09:42:09;;;;;;;37.58;6.32;;;12.10;99.90;;;;;;5064679;28;20099;-85
2020/12/19 09:44:40;;;;;;;39.92;6.95;;;12.10;99.90;;;;;;5063489;28;20051;-86
2020/12/19 09:47:09;;;;;;;47.78;6.97;;;12.10;99.90;;;;;;5054858;28;20060;-86
2020/12/19 09:49:40;;;;;;;34.97;7.35;;;12.10;99.90;;;;;;5067601;28;20148;-86
2020/12/19 09:52:09;;;;;;;41.45;7.20;;;12.20;99.90;;;;;;5066057;28;20060;-86
2020/12/19 09:54:38;;;;;;;43.50;6.93;;;12.30;99.90;;;;;;5055342;28;20044;-87
2020/12/19 09:57:09;;;;;;;39.17;6.78;;;12.40;99.90;;;;;;5062316;28;20068;-86
2020/12/19 09:59:38;;;;;;;40.17;6.20;;;12.50;99.90;;;;;;5071159;28;20054;-86
2020/12/19 10:02:11;;;;;;;37.05;5.90;;;12.60;99.90;;;;;;5068731;28;20088;-86
2020/12/19 10:04:39;;;;;;;34.83;5.22;;;12.60;99.90;;;;;;5068242;28;20049;-86
2020/12/19 10:07:11;;;;;;;36.72;5.32;;;12.60;99.90;;;;;;5070597;28;20055;-86
2020/12/19 10:09:41;;;;;;;43.97;6.40;;;12.50;99.90;;;;;;5072868;28;20063;-86
2020/12/19 10:12:11;;;;;;;38.65;6.28;;;12.50;99.90;;;;;;5066477;28;20055;-86
2020/12/19 10:14:42;;;;;;;31.27;5.35;;;12.50;99.90;;;;;;5070145;28;20052;-86
2020/12/19 10:17:10;;;;;;;40.30;6.40;;;12.60;99.90;;;;;;5069401;28;20053;-87
2020/12/19 10:19:41;;;;;;;33.85;6.82;;;12.70;99.90;;;;;;5067971;28;20544;-86
2020/12/19 10:22:10;;;;;;;32.95;6.25;;;12.80;99.90;;;;;;5065137;28;20409;-85
2020/12/19 10:24:42;;;;;;;46.55;6.65;;;12.80;99.90;;;;;;5073826;28;20071;-87
2020/12/19 10:27:12;;;;;;;42.13;6.32;;;12.80;99.90;;;;;;5090979;28;20056;-86
2020/12/19 10:29:41;;;;;;;37.75;6.47;;;12.80;99.90;;;;;;5067002;28;20044;-86
2020/12/19 10:32:12;;;;;;;33.80;5.97;;;12.80;99.90;;;;;;5087746;28;20090;-87
2020/12/19 10:34:41;;;;;;;39.55;6.72;;;12.90;99.90;;;;;;5068025;28;20095;-85
2020/12/19 10:37:09;;;;;;;34.35;6.25;;;12.90;99.90;;;;;;5068518;28;20131;-85
2020/12/19 10:39:39;;;;;;;35.03;5.90;;;12.90;99.90;;;;;;5068320;28;20048;-85
2020/12/19 10:42:09;;;;;;;35.38;6.15;;;12.90;99.90;;;;;;5071618;28;20106;-86
2020/12/19 10:44:42;;;;;;;37.85;6.60;;;12.80;99.90;;;;;;5068943;28;20055;-88
2020/12/19 10:47:14;;;;;;;39.53;7.68;;;12.70;99.90;;;;;;5068841;28;20128;-86
2020/12/19 10:49:44;;;;;;;39.38;6.85;;;12.70;99.90;;;;;;5067548;28;20541;-85
2020/12/19 10:52:19;;;;;;;46.55;6.70;;;12.70;99.90;;;;;;5070040;28;20048;-86
2020/12/19 10:54:49;;;;;;;34.97;6.95;;;12.70;99.90;;;;;;5068727;28;20608;-87
2020/12/19 10:57:20;;;;;;;43.78;6.47;;;12.70;99.90;;;;;;5072288;28;20055;-86
2020/12/19 10:59:54;;;;;;;38.08;6.07;;;12.80;99.90;;;;;;5066565;28;20059;-87
2020/12/19 11:02:23;;;;;;;37.85;5.60;;;12.80;99.90;;;;;;5072416;28;20462;-86
2020/12/19 11:04:52;;;;;;;38.80;6.20;;;12.90;99.90;;;;;;5071597;28;20486;-86
2020/12/19 11:07:22;;;;;;;42.33;6.72;;;12.90;99.90;;;;;;5069581;28;20130;-86
2020/12/19 11:09:52;;;;;;;38.28;5.60;;;12.90;99.90;;;;;;5061501;28;20451;-86
2020/12/19 11:12:21;;;;;;;35.95;6.43;;;13.00;99.90;;;;;;5068030;28;20052;-86
2020/12/19 11:14:50;;;;;;;39.92;6.95;;;13.00;99.90;;;;;;5068183;28;20048;-85
2020/12/19 11:17:20;;;;;;;39.72;8.02;;;13.10;99.90;;;;;;5069349;28;20135;-86
2020/12/19 11:19:49;;;;;;;43.22;6.28;;;13.10;99.90;;;;;;5061564;28;20494;-85
2020/12/19 11:22:20;;;;;;;49.25;6.30;;;13.10;99.90;;;;;;5069111;28;20422;-86
2020/12/19 11:24:51;;;;;;;41.67;7.90;;;13.20;99.90;;;;;;5068039;28;20048;-85
2020/12/19 11:27:19;;;;;;;;;;;13.20;99.90;;;;;;5066003;28;20159;-88
2020/12/19 11:29:51;;;;;;;39.05;6.88;;;13.30;99.90;;;;;;5081184;28;19974;-86
2020/12/19 11:32:23;;;;;;;41.90;6.88;;;13.30;99.90;;;;;;5067510;28;20052;-86
2020/12/19 11:34:52;;;;;;;36.08;5.82;;;13.40;99.90;;;;;;5067610;28;20505;-86
2020/12/19 11:37:25;;;;;;;40.58;5.95;;;13.30;99.90;;;;;;5063997;28;20130;-86
2020/12/19 11:39:54;;;;;;;38.15;5.45;;;13.30;99.90;;;;;;5064955;28;20060;-85
2020/12/19 11:42:22;;;;;;;40.05;6.43;;;13.30;99.90;;;;;;5070864;28;20060;-86
2020/12/19 11:44:52;;;;;;;32.92;5.90;;;13.30;99.90;;;;;;5065312;28;20044;-86
2020/12/19 11:47:23;;;;;;;40.00;6.68;;;13.30;99.90;;;;;;5068067;28;20106;-86
2020/12/19 11:49:52;;;;;;;37.28;6.13;;;13.30;99.90;;;;;;5063913;28;20051;-87
2020/12/19 11:52:20;;;;;;;;;;;13.30;99.90;;;;;;5067636;28;20873;-87
2020/12/19 11:54:51;;;;;;;;;;;13.20;99.90;;;;;;5050963;28;20369;-86
2020/12/19 11:57:22;;;;;;;46.15;6.10;;;13.30;99.90;;;;;;5067084;28;20354;-86
2020/12/19 11:59:50;;;;;;;38.47;6.28;;;13.40;99.90;;;;;;5059595;28;20076;-87
2020/12/19 12:02:19;;;;;;;43.92;7.10;;;13.50;99.90;;;;;;5062989;28;20494;-86
2020/12/19 12:04:47;;;;;;;36.80;6.43;;;13.60;99.90;;;;;;5062697;28;20044;-88
2020/12/19 12:07:17;;;;;;;36.00;6.37;;;13.70;99.90;;;;;;5064500;28;20055;-87
2020/12/19 12:09:50;;;;;;;41.58;7.60;;;13.80;99.90;;;;;;5063333;28;20131;-88
2020/12/19 12:12:19;;;;;;;31.23;6.10;;;13.90;99.90;;;;;;5065073;28;20044;-86
2020/12/19 12:14:52;;;;;;;39.25;6.68;;;14.00;99.90;;;;;;5070334;28;20048;-89
2020/12/19 12:17:26;;;;;;;31.15;5.50;;;14.10;99.90;;;;;;5065985;28;20060;-88
2020/12/19 12:19:58;;;;;;;30.13;5.90;;;14.20;99.90;;;;;;5060956;28;20052;-88
2020/12/19 12:22:30;;;;;;;34.85;5.90;;;14.20;99.90;;;;;;5064680;28;20401;-88
2020/12/19 12:25:00;;;;;;;34.42;5.30;;;14.20;99.90;;;;;;5067706;28;20094;-87
2020/12/19 12:27:29;;;;;;;31.67;5.13;;;14.20;99.90;;;;;;5062659;28;20464;-88
2020/12/19 12:29:58;;;;;;;33.15;5.93;;;14.20;99.90;;;;;;5057993;28;20060;-87
2020/12/19 12:32:25;;;;;;;35.28;5.85;;;14.10;99.90;;;;;;5062710;28;20123;-88
2020/12/19 12:34:55;;;;;;;32.55;6.35;;;14.10;99.90;;;;;;5063109;28;20059;-87
2020/12/19 12:37:24;;;;;;;35.92;7.45;;;14.10;99.90;;;;;;5059711;28;20390;-87
2020/12/19 12:39:53;;;;;;;28.05;5.50;;;14.10;99.90;;;;;;5066450;28;20056;-87
2020/12/19 12:42:23;;;;;;;30.17;5.75;;;14.10;99.90;;;;;;5063084;28;20135;-88
2020/12/19 12:44:54;;;;;;;42.47;6.13;;;14.10;99.90;;;;;;5061394;28;20083;-87
2020/12/19 12:47:22;;;;;;;31.23;6.28;;;14.00;99.90;;;;;;5048976;28;20511;-87
2020/12/19 12:49:50;;;;;;;37.13;6.10;;;14.00;99.90;;;;;;5047036;28;20068;-87
2020/12/19 12:52:19;;;;;;;36.30;5.95;;;14.00;99.90;;;;;;5048663;28;20997;-87
2020/12/19 12:54:50;;;;;;;32.40;6.90;;;14.10;99.90;;;;;;5045119;28;20100;-87
2020/12/19 12:57:22;;;;;;;33.72;5.78;;;14.00;99.90;;;;;;5045187;28;20083;-87
2020/12/19 12:59:58;;;;;;;37.92;5.32;;;14.00;99.90;;;;;;5048053;28;20052;-93
2020/12/19 13:02:28;;;;;;;38.20;6.40;;;13.90;99.90;;;;;;5044277;28;20108;-87